Time;durP1;ratioP1;P1;durP2;ratioP2;P2;SDS_P1;SDS_P2;PMS_P1;PMS_P2;Temp;Humidity;BMP_temperature;BMP_pressure;BME280_temperature;BME280_humidity;BME280_pressure;Samples;Min_cycle;Max_cycle;Signal;HPM_P1;HPM_P2
2023/09/03 00:01:18;;;;;;;17.00;9.52;;;;;;;13.99;100.00;102694.72;6076014;19;20023;-69
2023/09/03 00:03:26;;;;;;;14.00;9.60;;;;;;;13.96;100.00;102686.00;6073591;19;20350;-67
2023/09/03 00:05:31;;;;;;;15.68;8.88;;;;;;;13.91;100.00;102683.47;6068948;19;20007;-70
2023/09/03 00:07:39;;;;;;;16.90;9.75;;;;;;;13.89;100.00;102684.44;6072802;19;20644;-70
2023/09/03 00:09:46;;;;;;;16.65;9.85;;;;;;;13.88;100.00;102688.84;6067235;19;20050;-68
2023/09/03 00:11:51;;;;;;;18.45;10.82;;;;;;;13.95;100.00;102686.91;6073125;19;20299;-69
2023/09/03 00:13:59;;;;;;;19.20;10.15;;;;;;;13.91;100.00;102688.75;6070031;19;20017;-69
2023/09/03 00:16:05;;;;;;;15.82;10.20;;;;;;;13.86;100.00;102695.06;6072097;19;20010;-68
2023/09/03 00:18:11;;;;;;;19.25;10.77;;;;;;;13.82;100.00;102696.91;6069618;19;20691;-68
2023/09/03 00:20:21;;;;;;;20.83;11.02;;;;;;;13.81;100.00;102703.97;6072964;19;20086;-69
2023/09/03 00:22:26;;;;;;;19.92;11.35;;;;;;;13.82;100.00;102694.25;6069233;19;20014;-68
2023/09/03 00:24:34;;;;;;;23.40;11.35;;;;;;;13.80;100.00;102701.38;6068778;19;20342;-68
2023/09/03 00:26:39;;;;;;;19.15;11.77;;;;;;;13.81;100.00;102687.25;6066413;19;20078;-67
2023/09/03 00:28:44;;;;;;;20.30;12.10;;;;;;;13.78;100.00;102692.63;6069193;19;20075;-68
2023/09/03 00:31:02;;;;;;;17.95;10.77;;;;;;;13.76;100.00;102682.06;6068784;19;20031;-69
2023/09/03 00:33:07;;;;;;;17.30;10.77;;;;;;;13.78;100.00;102679.41;6069706;19;20015;-68
2023/09/03 00:35:13;;;;;;;20.13;11.70;;;;;;;13.75;100.00;102671.56;6070265;19;20006;-68
2023/09/03 00:37:18;;;;;;;19.30;10.55;;;;;;;13.76;100.00;102670.63;6067633;19;20034;-68
2023/09/03 00:39:23;;;;;;;19.98;10.68;;;;;;;13.79;100.00;102675.84;6069035;19;20669;-68
2023/09/03 00:41:32;;;;;;;15.32;10.98;;;;;;;13.80;100.00;102677.59;6070385;19;20642;-68
2023/09/03 00:43:43;;;;;;;17.95;10.90;;;;;;;13.74;100.00;102667.16;6073929;19;20760;-69
2023/09/03 00:45:51;;;;;;;19.45;11.57;;;;;;;13.69;100.00;102669.03;6034483;19;20400;-69
2023/09/03 00:47:59;;;;;;;16.73;9.93;;;;;;;13.68;100.00;102669.97;6052332;19;20025;-69
2023/09/03 00:50:05;;;;;;;17.90;10.63;;;;;;;13.65;100.00;102670.03;6073128;19;20467;-68
2023/09/03 00:52:12;;;;;;;18.52;11.00;;;;;;;13.63;100.00;102658.63;6069589;19;20056;-69
2023/09/03 00:54:17;;;;;;;18.27;9.98;;;;;;;13.56;100.00;102664.06;6048761;19;20286;-69
2023/09/03 00:56:23;;;;;;;20.45;10.70;;;;;;;13.54;100.00;102668.53;6067107;19;20017;-69
2023/09/03 00:58:29;;;;;;;19.67;11.65;;;;;;;13.52;100.00;102667.69;6067313;19;20102;-69
2023/09/03 01:00:38;;;;;;;17.00;11.05;;;;;;;13.46;100.00;102670.47;6064036;19;20014;-67
2023/09/03 01:02:48;;;;;;;22.33;11.55;;;;;;;13.51;100.00;102673.03;6065145;19;20017;-68
2023/09/03 01:04:53;;;;;;;17.88;10.70;;;;;;;13.50;100.00;102664.19;6068482;19;20003;-68
2023/09/03 01:07:01;;;;;;;20.25;10.98;;;;;;;13.48;100.00;102652.84;6065409;19;20620;-68
2023/09/03 01:09:08;;;;;;;20.20;12.15;;;;;;;13.47;100.00;102655.50;6069776;19;20380;-68
2023/09/03 01:11:30;;;;;;;18.85;11.13;;;;;;;13.47;100.00;102653.72;6069049;19;20292;-69
2023/09/03 01:13:45;;;;;;;23.00;11.65;;;;;;;13.50;100.00;102651.00;6067672;19;21240;-69
2023/09/03 01:15:55;;;;;;;22.63;11.98;;;;;;;13.50;100.00;102643.06;6066872;19;20007;-70
2023/09/03 01:18:08;;;;;;;24.33;12.40;;;;;;;13.53;100.00;102643.03;6069728;19;20003;-69
2023/09/03 01:20:19;;;;;;;19.35;10.70;;;;;;;13.52;100.00;102646.56;6070931;19;20074;-69
2023/09/03 01:22:37;;;;;;;20.52;11.85;;;;;;;13.48;100.00;102650.19;6071622;19;20529;-69
2023/09/03 01:25:04;;;;;;;21.85;13.05;;;;;;;13.52;100.00;102656.25;6066953;19;20039;-68
2023/09/03 01:27:23;;;;;;;21.17;11.38;;;;;;;13.48;100.00;102660.75;6074879;19;20216;-67
2023/09/03 01:29:33;;;;;;;22.75;11.05;;;;;;;13.42;100.00;102671.44;6071986;19;20034;-70
2023/09/03 01:31:39;;;;;;;24.10;11.90;;;;;;;13.41;100.00;102666.22;6070639;19;20007;-68
2023/09/03 01:33:46;;;;;;;22.92;11.20;;;;;;;13.43;100.00;102667.00;6067008;19;20029;-67
2023/09/03 01:35:59;;;;;;;18.48;10.43;;;;;;;13.43;100.00;102667.91;6068408;19;20014;-68
2023/09/03 01:38:04;;;;;;;24.20;12.23;;;;;;;13.47;100.00;102656.34;6069202;19;20014;-69
2023/09/03 01:40:11;;;;;;;26.02;12.57;;;;;;;13.46;100.00;102665.19;6067192;19;20010;-68
2023/09/03 01:42:17;;;;;;;20.67;12.23;;;;;;;13.45;100.00;102674.00;6068623;19;20010;-68
2023/09/03 01:44:22;;;;;;;24.63;12.35;;;;;;;13.42;100.00;102675.84;6069789;19;20078;-68
2023/09/03 01:46:41;;;;;;;25.45;13.65;;;;;;;13.42;100.00;102687.28;6074666;19;20089;-68
2023/09/03 01:49:00;;;;;;;21.73;12.18;;;;;;;13.39;100.00;102706.72;6071564;19;20006;-67
2023/09/03 01:51:15;;;;;;;24.63;13.45;;;;;;;13.32;100.00;102709.50;6070356;19;20014;-68
2023/09/03 01:53:29;;;;;;;25.73;12.40;;;;;;;13.32;100.00;102720.06;6068948;19;20455;-69
2023/09/03 01:55:44;;;;;;;24.50;13.63;;;;;;;13.32;100.00;102723.59;6065684;19;20042;-67
2023/09/03 01:57:53;;;;;;;33.25;14.07;;;;;;;13.30;100.00;102729.81;6069193;19;20534;-69
2023/09/03 02:00:07;;;;;;;25.53;11.00;;;;;;;13.26;100.00;102722.81;6066966;19;20523;-69
2023/09/03 02:02:15;;;;;;;26.75;12.77;;;;;;;13.29;100.00;102725.44;6071935;19;20510;-69
2023/09/03 02:04:19;;;;;;;24.75;12.57;;;;;;;13.27;100.00;102717.56;6071560;19;20624;-67
2023/09/03 02:06:27;;;;;;;21.75;11.15;;;;;;;13.29;100.00;102725.44;6071290;19;20014;-68
2023/09/03 02:08:32;;;;;;;21.65;12.10;;;;;;;13.34;100.00;102721.78;6070648;19;20047;-68
2023/09/03 02:10:37;;;;;;;24.05;13.48;;;;;;;13.39;100.00;102726.97;6068452;19;20458;-70
2023/09/03 02:12:42;;;;;;;21.67;11.45;;;;;;;13.34;100.00;102718.28;6069754;19;20010;-67
2023/09/03 02:14:48;;;;;;;25.60;12.40;;;;;;;13.33;100.00;102714.78;6071992;19;20014;-69
2023/09/03 02:16:50;;;;;;;22.98;12.43;;;;;;;13.30;100.00;102716.63;6070737;19;20010;-68
2023/09/03 02:18:58;;;;;;;25.83;13.30;;;;;;;13.36;100.00;102709.41;6068890;19;20021;-70
2023/09/03 02:21:01;;;;;;;24.42;12.98;;;;;;;13.37;100.00;102705.88;6070395;19;20176;-69
2023/09/03 02:23:06;;;;;;;24.02;12.60;;;;;;;13.38;100.00;102696.19;6065236;19;20402;-68
2023/09/03 02:25:12;;;;;;;26.25;13.40;;;;;;;13.38;100.00;102698.84;6067916;19;20066;-68
2023/09/03 02:27:17;;;;;;;21.35;11.70;;;;;;;13.34;100.00;102705.06;6074885;19;20304;-68
2023/09/03 02:29:22;;;;;;;19.85;10.98;;;;;;;13.35;100.00;102701.56;6076381;19;20026;-68
2023/09/03 02:31:30;;;;;;;23.98;11.85;;;;;;;13.35;100.00;102697.13;6069225;19;20548;-68
2023/09/03 02:33:36;;;;;;;22.83;11.90;;;;;;;13.36;100.00;102701.50;6073313;19;20013;-68
2023/09/03 02:35:43;;;;;;;21.77;11.60;;;;;;;13.30;100.00;102690.22;6076318;19;20695;-69
2023/09/03 02:37:48;;;;;;;21.42;10.75;;;;;;;13.29;100.00;102681.41;6074807;19;20344;-68
2023/09/03 02:39:53;;;;;;;26.20;13.07;;;;;;;13.30;100.00;102679.66;6071413;19;20478;-67
2023/09/03 02:42:02;;;;;;;21.55;11.43;;;;;;;13.25;100.00;102665.66;6074857;19;20007;-68
2023/09/03 02:44:07;;;;;;;22.23;11.07;;;;;;;13.21;100.00;102679.81;6076139;19;20060;-68
2023/09/03 02:46:14;;;;;;;20.55;10.38;;;;;;;13.20;100.00;102668.38;6072840;19;20017;-68
2023/09/03 02:48:19;;;;;;;19.73;11.40;;;;;;;13.22;100.00;102661.31;6075052;19;20011;-68
2023/09/03 02:50:25;;;;;;;21.65;12.32;;;;;;;13.18;100.00;102663.13;6076508;19;20013;-68
2023/09/03 02:52:33;;;;;;;21.70;10.73;;;;;;;13.15;100.00;102660.56;6072303;19;20014;-69
2023/09/03 02:54:39;;;;;;;21.48;11.55;;;;;;;13.13;100.00;102665.00;6074253;19;20549;-67
2023/09/03 02:56:44;;;;;;;19.50;11.02;;;;;;;13.12;100.00;102665.91;6073885;19;20002;-68
2023/09/03 02:58:50;;;;;;;20.52;11.30;;;;;;;13.13;100.00;102672.91;6075271;19;20010;-68
2023/09/03 03:00:56;;;;;;;21.63;10.48;;;;;;;13.15;100.00;102681.69;6075967;19;20011;-68
2023/09/03 03:03:04;;;;;;;22.15;11.35;;;;;;;13.13;100.00;102680.84;6067735;19;20296;-68
2023/09/03 03:05:10;;;;;;;19.45;10.73;;;;;;;13.11;100.00;102687.94;6072154;19;20065;-68
2023/09/03 03:07:18;;;;;;;19.67;10.02;;;;;;;13.10;100.00;102680.06;6068104;19;20531;-68
2023/09/03 03:09:29;;;;;;;20.63;11.05;;;;;;;13.09;100.00;102683.59;6077002;19;20545;-68
2023/09/03 03:11:34;;;;;;;19.20;10.25;;;;;;;13.11;100.00;102685.31;6073386;19;20023;-68
2023/09/03 03:13:41;;;;;;;20.60;10.48;;;;;;;13.10;100.00;102682.69;6075997;19;20684;-68
2023/09/03 03:15:51;;;;;;;23.33;12.32;;;;;;;13.07;100.00;102699.47;6078031;19;20462;-68
2023/09/03 03:17:57;;;;;;;21.63;11.35;;;;;;;13.09;100.00;102710.00;6074834;19;20017;-69
2023/09/03 03:20:03;;;;;;;20.10;11.18;;;;;;;13.08;100.00;102729.34;6074713;19;20010;-69
2023/09/03 03:22:06;;;;;;;22.98;11.38;;;;;;;13.09;100.00;102729.34;6074149;19;20014;-69
2023/09/03 03:24:13;;;;;;;20.92;11.57;;;;;;;13.09;100.00;102731.13;6074940;19;20082;-69
2023/09/03 03:26:21;;;;;;;22.95;11.73;;;;;;;13.08;100.00;102722.31;6073403;19;20302;-67
2023/09/03 03:28:31;;;;;;;21.83;10.52;;;;;;;13.05;100.00;102730.28;6073506;19;20195;-70
2023/09/03 03:30:36;;;;;;;18.85;10.32;;;;;;;13.07;100.00;102730.28;6069867;19;20513;-68
2023/09/03 03:32:42;;;;;;;21.10;10.13;;;;;;;13.06;100.00;102721.50;6069467;19;20904;-69
2023/09/03 03:34:47;;;;;;;24.60;11.23;;;;;;;13.06;100.00;102721.50;6070546;19;20034;-69
2023/09/03 03:36:53;;;;;;;19.40;10.88;;;;;;;13.05;100.00;102717.09;6070166;19;20010;-68
2023/09/03 03:38:55;;;;;;;25.05;11.80;;;;;;;13.05;100.00;102706.53;6073298;19;20477;-68
2023/09/03 03:41:10;;;;;;;23.38;10.68;;;;;;;13.06;100.00;102712.69;6072572;19;20495;-69
2023/09/03 03:43:18;;;;;;;22.73;11.23;;;;;;;13.06;100.00;102708.28;6070125;19;20274;-68
2023/09/03 03:45:23;;;;;;;20.23;10.43;;;;;;;13.04;100.00;102712.72;6072994;19;20189;-68
2023/09/03 03:47:28;;;;;;;20.83;10.00;;;;;;;13.04;100.00;102714.50;6075951;19;20071;-70
2023/09/03 03:49:34;;;;;;;21.60;11.68;;;;;;;12.99;100.00;102717.22;6074804;19;20030;-69
2023/09/03 03:51:39;;;;;;;21.02;10.48;;;;;;;12.99;100.00;102726.94;6073763;19;20015;-69
2023/09/03 03:53:45;;;;;;;18.75;10.25;;;;;;;12.99;100.00;102727.78;6073087;19;20018;-69
2023/09/03 03:55:58;;;;;;;18.77;10.70;;;;;;;13.01;100.00;102736.56;6070850;19;20409;-69
2023/09/03 03:58:05;;;;;;;17.05;9.27;;;;;;;12.98;100.00;102741.91;6067932;19;20366;-69
2023/09/03 04:00:14;;;;;;;19.15;9.90;;;;;;;12.99;100.00;102732.19;6067697;19;20286;-67
2023/09/03 04:02:19;;;;;;;26.35;11.52;;;;;;;12.97;100.00;102734.84;6070575;19;20019;-69
2023/09/03 04:04:27;;;;;;;19.60;10.82;;;;;;;12.94;100.00;102734.94;6071742;19;20010;-69
2023/09/03 04:06:34;;;;;;;20.23;9.75;;;;;;;12.97;100.00;102734.84;6072294;19;20492;-68
2023/09/03 04:08:38;;;;;;;19.85;10.00;;;;;;;12.96;100.00;102728.72;6072680;19;20192;-69
2023/09/03 04:10:43;;;;;;;20.52;9.85;;;;;;;12.96;100.00;102718.16;6073415;19;20503;-69
2023/09/03 04:12:48;;;;;;;18.45;10.20;;;;;;;12.97;100.00;102724.31;6071316;19;20257;-68
2023/09/03 04:14:57;;;;;;;21.40;10.15;;;;;;;12.95;100.00;102727.00;6073897;19;20434;-68
2023/09/03 04:17:05;;;;;;;18.05;9.52;;;;;;;12.97;100.00;102726.94;6070897;19;20298;-68
2023/09/03 04:19:11;;;;;;;19.20;9.52;;;;;;;12.98;100.00;102722.53;6071265;19;20010;-68
2023/09/03 04:21:16;;;;;;;19.52;10.23;;;;;;;12.98;100.00;102718.16;6069149;19;20458;-68
2023/09/03 04:23:22;;;;;;;21.75;9.77;;;;;;;13.02;100.00;102708.38;6068397;19;20042;-68
2023/09/03 04:25:30;;;;;;;20.15;9.90;;;;;;;13.03;100.00;102718.88;6070958;19;20674;-68
2023/09/03 04:27:35;;;;;;;19.83;9.57;;;;;;;13.02;100.00;102714.53;6067656;19;20888;-67
2023/09/03 04:29:40;;;;;;;21.63;10.57;;;;;;;13.03;100.00;102716.25;6069992;19;20799;-70
2023/09/03 04:31:48;;;;;;;21.42;9.90;;;;;;;13.01;100.00;102712.78;6070314;19;20003;-69
2023/09/03 04:33:56;;;;;;;22.23;10.10;;;;;;;13.08;100.00;102721.44;6069940;19;20259;-70
2023/09/03 04:36:00;;;;;;;20.40;9.93;;;;;;;13.08;100.00;102735.50;6072811;19;20006;-68
2023/09/03 04:38:07;;;;;;;19.55;10.15;;;;;;;13.10;100.00;102749.53;6072097;19;20774;-69
2023/09/03 04:40:15;;;;;;;21.38;10.05;;;;;;;13.10;100.00;102746.91;6075294;19;20707;-69
2023/09/03 04:42:20;;;;;;;22.75;10.55;;;;;;;13.13;100.00;102745.97;6074054;19;20317;-70
2023/09/03 04:44:25;;;;;;;19.65;10.48;;;;;;;13.14;100.00;102737.16;6073643;19;20371;-67
2023/09/03 04:46:33;;;;;;;20.90;10.02;;;;;;;13.14;100.00;102738.03;6067882;19;20014;-68
2023/09/03 04:48:38;;;;;;;19.25;9.75;;;;;;;13.18;100.00;102739.69;6072847;19;20090;-68
2023/09/03 04:50:46;;;;;;;23.95;11.52;;;;;;;13.18;100.00;102746.75;6068297;19;20007;-68
2023/09/03 04:52:52;;;;;;;21.42;10.18;;;;;;;13.16;100.00;102746.81;6074846;19;20025;-68
2023/09/03 04:55:00;;;;;;;21.60;10.25;;;;;;;13.16;100.00;102752.06;6074537;19;20014;-69
2023/09/03 04:57:07;;;;;;;19.77;9.45;;;;;;;13.15;100.00;102752.09;6075929;19;20488;-68
2023/09/03 04:59:12;;;;;;;18.88;10.02;;;;;;;13.09;100.00;102749.59;6075508;19;20926;-69
2023/09/03 05:01:17;;;;;;;19.33;9.77;;;;;;;13.07;100.00;102754.88;6076839;19;20014;-70
2023/09/03 05:03:23;;;;;;;20.30;9.75;;;;;;;13.10;100.00;102769.78;6073859;19;20399;-69
2023/09/03 05:05:29;;;;;;;20.80;10.73;;;;;;;13.12;100.00;102768.00;6077237;19;20011;-69
2023/09/03 05:07:37;;;;;;;23.25;9.95;;;;;;;13.08;100.00;102767.19;6071891;19;20495;-70
2023/09/03 05:09:43;;;;;;;19.30;9.07;;;;;;;13.06;100.00;102766.34;6074387;19;20493;-69
2023/09/03 05:11:48;;;;;;;18.77;9.15;;;;;;;13.04;100.00;102762.88;6073839;19;20024;-69
2023/09/03 05:13:53;;;;;;;20.88;9.52;;;;;;;13.05;100.00;102764.59;6072509;19;20222;-69
2023/09/03 05:15:58;;;;;;;21.52;10.27;;;;;;;13.08;100.00;102764.53;6075189;19;20338;-69
2023/09/03 05:18:03;;;;;;;21.10;10.32;;;;;;;13.09;100.00;102763.66;6063928;19;20044;-69
2023/09/03 05:20:10;;;;;;;22.70;11.05;;;;;;;13.08;100.00;102768.94;6060084;19;20470;-68
2023/09/03 05:22:15;;;;;;;23.73;11.18;;;;;;;13.11;100.00;102768.88;6060484;19;20011;-68
2023/09/03 05:24:21;;;;;;;24.05;11.38;;;;;;;13.13;100.00;102765.31;6067200;19;20014;-68
2023/09/03 05:26:26;;;;;;;21.42;10.75;;;;;;;13.14;100.00;102766.22;6071625;19;20010;-69
2023/09/03 05:28:32;;;;;;;20.80;10.90;;;;;;;13.15;100.00;102765.28;6073833;19;20296;-69
2023/09/03 05:30:37;;;;;;;22.23;11.13;;;;;;;13.19;100.00;102777.50;6076276;19;20207;-69
2023/09/03 05:32:42;;;;;;;21.27;10.07;;;;;;;13.23;100.00;102773.06;6074758;19;20717;-68
2023/09/03 05:34:45;;;;;;;22.00;11.02;;;;;;;13.26;100.00;102780.91;6075655;19;20064;-70
2023/09/03 05:37:04;;;;;;;;;;;;;;;13.24;100.00;102782.72;6077497;19;20582;-68
2023/09/03 05:39:09;;;;;;;22.73;10.60;;;;;;;13.25;100.00;102787.09;6071160;19;19946;-69
2023/09/03 05:41:25;;;;;;;20.88;9.30;;;;;;;13.31;100.00;102787.00;6067130;19;20368;-69
2023/09/03 05:43:31;;;;;;;21.27;10.15;;;;;;;13.40;100.00;102789.44;6073295;19;20251;-69
2023/09/03 05:45:46;;;;;;;19.70;9.27;;;;;;;13.46;100.00;102791.97;6070439;19;20011;-69
2023/09/03 05:48:00;;;;;;;20.15;9.95;;;;;;;13.52;100.00;102796.25;6061798;19;20192;-68
2023/09/03 05:50:17;;;;;;;24.02;10.55;;;;;;;13.58;100.00;102796.09;6028752;19;20208;-69
2023/09/03 05:52:27;;;;;;;24.52;10.43;;;;;;;13.63;100.00;102803.94;6061453;19;20678;-69
2023/09/03 05:54:42;;;;;;;20.30;9.98;;;;;;;13.66;100.00;102803.84;6047763;19;20050;-69
2023/09/03 05:56:50;;;;;;;19.50;9.65;;;;;;;13.74;100.00;102801.91;6064582;19;20020;-69
2023/09/03 05:59:02;;;;;;;28.33;11.48;;;;;;;13.78;100.00;102798.31;6061636;19;20014;-69
2023/09/03 06:01:08;;;;;;;21.88;10.32;;;;;;;13.83;100.00;102809.66;6066830;19;20307;-69
2023/09/03 06:03:13;;;;;;;21.75;9.73;;;;;;;13.91;100.00;102818.28;6061427;19;20078;-69
2023/09/03 06:05:18;;;;;;;20.98;9.90;;;;;;;13.99;100.00;102824.25;6064345;19;20355;-69
2023/09/03 06:07:26;;;;;;;19.05;10.10;;;;;;;14.07;100.00;102821.44;6064598;19;21109;-70
2023/09/03 06:09:32;;;;;;;19.17;10.13;;;;;;;14.17;100.00;102830.88;6065451;19;20445;-70
2023/09/03 06:11:37;;;;;;;23.35;11.57;;;;;;;14.28;100.00;102835.91;6065187;19;20650;-70
2023/09/03 06:13:47;;;;;;;24.25;11.85;;;;;;;14.37;100.00;102835.66;6066576;19;20010;-69
2023/09/03 06:15:53;;;;;;;25.92;11.57;;;;;;;14.45;100.00;102839.00;6062994;19;20481;-70
2023/09/03 06:18:00;;;;;;;21.23;10.77;;;;;;;14.56;100.00;102840.53;6065958;19;20398;-72
2023/09/03 06:20:07;;;;;;;21.70;10.77;;;;;;;14.67;100.00;102849.97;6061974;19;20399;-68
2023/09/03 06:22:12;;;;;;;21.88;10.05;;;;;;;14.82;100.00;102850.47;6061356;19;20447;-69
2023/09/03 06:24:21;;;;;;;23.10;10.25;;;;;;;14.89;100.00;102857.34;6065546;19;20483;-68
2023/09/03 06:26:26;;;;;;;21.33;10.60;;;;;;;15.02;100.00;102857.88;6066152;19;20461;-69
2023/09/03 06:28:32;;;;;;;19.35;10.00;;;;;;;15.25;100.00;102860.78;6065469;19;20021;-69
2023/09/03 06:30:39;;;;;;;23.40;11.38;;;;;;;15.30;100.00;102866.81;6068482;19;20054;-68
2023/09/03 06:32:46;;;;;;;22.30;11.30;;;;;;;15.61;100.00;102867.72;6064085;19;20609;-69
2023/09/03 06:34:52;;;;;;;24.88;11.48;;;;;;;15.73;100.00;102870.03;6055183;19;20475;-70
2023/09/03 06:37:02;;;;;;;22.88;11.60;;;;;;;15.87;100.00;102861.66;6056606;19;20474;-71
2023/09/03 06:39:10;;;;;;;21.50;10.23;;;;;;;15.90;100.00;102864.22;6055449;19;20014;-69
2023/09/03 06:41:28;;;;;;;21.23;10.55;;;;;;;15.93;100.00;102869.41;6067361;19;20355;-70
2023/09/03 06:43:41;;;;;;;18.90;9.52;;;;;;;16.01;100.00;102875.38;6040724;19;20196;-70
2023/09/03 06:45:55;;;;;;;21.40;10.30;;;;;;;16.17;100.00;102860.72;6068883;19;20530;-72
2023/09/03 06:48:00;;;;;;;23.45;10.93;;;;;;;16.29;100.00;102861.25;6044610;19;20629;-71
2023/09/03 06:50:03;;;;;;;19.45;10.02;;;;;;;16.25;100.00;102860.47;6057424;19;20265;-70
2023/09/03 06:52:09;;;;;;;20.55;9.73;;;;;;;16.33;100.00;102862.88;6055407;19;20011;-70
2023/09/03 06:54:14;;;;;;;20.75;10.32;;;;;;;16.47;100.00;102852.69;6053622;19;20465;-70
2023/09/03 06:56:19;;;;;;;22.25;11.32;;;;;;;16.52;100.00;102856.03;6050013;19;20462;-70
2023/09/03 06:58:27;;;;;;;18.35;9.23;;;;;;;16.56;100.00;102862.09;6051379;19;20236;-70
2023/09/03 07:00:36;;;;;;;20.42;10.63;;;;;;;16.76;100.00;102848.16;6046608;19;20275;-70
2023/09/03 07:02:47;;;;;;;19.15;9.77;;;;;;;16.78;100.00;102849.03;6058727;19;20003;-70
2023/09/03 07:04:53;;;;;;;19.75;9.38;;;;;;;16.77;100.00;102858.78;6060538;19;20209;-68
2023/09/03 07:07:01;;;;;;;24.10;10.10;;;;;;;16.85;100.00;102853.19;6053454;19;20010;-68
2023/09/03 07:09:10;;;;;;;16.90;8.73;;;;;;;16.99;100.00;102861.56;6053586;19;20021;-70
2023/09/03 07:11:15;;;;;;;19.67;9.52;;;;;;;17.21;100.00;102866.09;6058954;19;20147;-69
2023/09/03 07:13:21;;;;;;;19.20;9.35;;;;;;;17.26;100.00;102861.47;6060203;19;20011;-69
2023/09/03 07:15:27;;;;;;;19.50;10.07;;;;;;;17.07;100.00;102870.13;6057939;19;20025;-68
2023/09/03 07:17:33;;;;;;;18.20;10.23;;;;;;;17.25;100.00;102859.75;6067684;19;20249;-69
2023/09/03 07:19:44;;;;;;;17.48;9.27;;;;;;;17.37;100.00;102866.41;6049654;19;20028;-70
2023/09/03 07:21:50;;;;;;;17.77;9.00;;;;;;;17.49;100.00;102866.81;6068647;19;20455;-69
2023/09/03 07:24:03;;;;;;;17.30;9.15;;;;;;;17.69;99.72;102870.50;6079384;19;20272;-71
2023/09/03 07:26:11;;;;;;;19.25;9.55;;;;;;;17.72;97.96;102883.69;6045358;19;20507;-70
2023/09/03 07:28:23;;;;;;;19.13;10.13;;;;;;;17.94;97.23;102883.78;6070085;19;20018;-69
2023/09/03 07:30:36;;;;;;;19.92;9.73;;;;;;;18.12;95.62;102880.38;6068504;19;20243;-70
2023/09/03 07:32:45;;;;;;;19.58;8.80;;;;;;;18.21;95.96;102880.00;6056887;19;20221;-70
2023/09/03 07:35:08;;;;;;;19.47;9.37;;;;;;;18.10;94.54;102894.69;6063496;19;20007;-70
2023/09/03 07:37:14;;;;;;;13.27;7.38;;;;;;;18.48;95.24;102895.78;6064895;19;20298;-70
2023/09/03 07:39:20;;;;;;;18.10;8.85;;;;;;;18.54;92.49;102897.34;6066522;19;20482;-70
2023/09/03 07:41:31;;;;;;;17.23;8.35;;;;;;;18.86;92.02;102898.69;6063412;19;20014;-69
2023/09/03 07:43:38;;;;;;;15.70;8.40;;;;;;;18.80;90.45;102891.81;6059351;19;20532;-70
2023/09/03 07:46:01;;;;;;;16.08;7.82;;;;;;;19.04;90.78;102897.03;6061548;19;20493;-67
2023/09/03 07:48:12;;;;;;;14.80;7.97;;;;;;;19.08;92.23;102888.81;6028226;19;20534;-70
2023/09/03 07:50:20;;;;;;;18.88;7.72;;;;;;;19.25;89.49;102893.44;6061968;19;20325;-69
2023/09/03 07:52:32;;;;;;;16.38;8.10;;;;;;;19.38;89.60;102893.75;6071632;19;20524;-69
2023/09/03 07:54:38;;;;;;;15.27;8.23;;;;;;;19.48;87.88;102897.72;6035705;19;20013;-70
2023/09/03 07:56:54;;;;;;;15.38;7.55;;;;;;;19.41;87.35;102900.75;6058712;19;20117;-69
2023/09/03 07:59:08;;;;;;;14.77;7.45;;;;;;;19.39;85.32;102900.78;6061440;19;20039;-70
2023/09/03 08:01:16;;;;;;;15.75;8.18;;;;;;;19.45;85.62;102902.31;6054735;19;20466;-69
2023/09/03 08:03:34;;;;;;;14.18;7.13;;;;;;;19.65;84.95;102902.28;6074369;19;20265;-69
2023/09/03 08:05:49;;;;;;;15.55;7.65;;;;;;;19.82;84.84;102892.66;6096369;19;20448;-70
2023/09/03 08:07:54;;;;;;;14.18;7.50;;;;;;;19.60;83.11;102896.28;6098654;19;20119;-69
2023/09/03 08:10:01;;;;;;;14.52;7.30;;;;;;;20.13;84.65;102892.94;6095995;19;20421;-69
2023/09/03 08:12:07;;;;;;;12.00;6.70;;;;;;;20.33;83.18;102899.13;6093973;19;20007;-70
2023/09/03 08:14:13;;;;;;;17.42;7.28;;;;;;;20.05;82.71;102889.75;6093075;19;20474;-70
2023/09/03 08:16:27;;;;;;;14.98;7.07;;;;;;;20.12;82.06;102896.53;6075338;19;20006;-70
2023/09/03 08:18:34;;;;;;;15.20;6.97;;;;;;;20.14;83.06;102899.13;6090130;19;20090;-69
2023/09/03 08:20:51;;;;;;;12.43;7.35;;;;;;;20.21;81.58;102902.38;6072176;19;20486;-70
2023/09/03 08:23:03;;;;;;;13.00;6.78;;;;;;;20.64;79.89;102903.81;6052035;19;22185;-69
2023/09/03 08:25:06;;;;;;;14.00;6.35;;;;;;;21.00;80.22;102897.53;6056107;19;20014;-70
2023/09/03 08:27:12;;;;;;;13.73;7.55;;;;;;;21.24;77.95;102892.72;6016397;19;20430;-69
2023/09/03 08:29:20;;;;;;;11.00;6.00;;;;;;;20.98;77.06;102891.41;6059258;19;20011;-70
2023/09/03 08:31:40;;;;;;;11.07;6.57;;;;;;;21.11;76.22;102892.50;6057632;19;20531;-69
2023/09/03 08:33:46;;;;;;;11.88;6.22;;;;;;;21.24;75.70;102887.38;6055951;19;20777;-69
2023/09/03 08:35:57;;;;;;;14.02;7.00;;;;;;;21.33;74.25;102884.22;6054693;19;20006;-70
2023/09/03 08:38:04;;;;;;;11.60;6.25;;;;;;;21.53;74.53;102877.81;6053312;19;20409;-68
2023/09/03 08:40:14;;;;;;;14.68;5.57;;;;;;;21.84;73.16;102882.31;6058610;19;20519;-69
2023/09/03 08:42:25;;;;;;;11.70;6.18;;;;;;;21.94;71.95;102890.72;6069579;19;20295;-70
2023/09/03 08:44:38;;;;;;;10.15;5.93;;;;;;;22.14;70.74;102889.56;6070574;19;20340;-69
2023/09/03 08:46:46;;;;;;;10.20;5.65;;;;;;;21.81;70.60;102895.88;6064402;19;20036;-68
2023/09/03 08:49:07;;;;;;;10.05;5.30;;;;;;;21.95;70.70;102897.78;6047966;19;20025;-72
2023/09/03 08:51:15;;;;;;;12.70;5.80;;;;;;;22.01;69.83;102894.78;6060805;19;20021;-69
2023/09/03 08:53:25;;;;;;;7.70;4.68;;;;;;;22.13;69.39;102893.22;6059205;19;20007;-70
2023/09/03 08:55:32;;;;;;;10.07;4.95;;;;;;;22.42;67.88;102890.72;6029339;19;20572;-69
2023/09/03 08:57:46;;;;;;;11.30;4.90;;;;;;;22.44;66.65;102888.81;6054730;19;20781;-69
2023/09/03 09:00:10;;;;;;;10.25;5.60;;;;;;;22.50;66.43;102891.13;6066699;19;20648;-70
2023/09/03 09:02:20;;;;;;;11.57;5.07;;;;;;;22.46;65.67;102881.53;6070730;19;20055;-69
2023/09/03 09:04:29;;;;;;;10.65;6.05;;;;;;;22.39;65.17;102881.03;6076844;19;20011;-68
2023/09/03 09:06:45;;;;;;;9.30;4.78;;;;;;;22.81;64.80;102876.78;6046702;19;20073;-70
2023/09/03 09:08:52;;;;;;;10.85;5.90;;;;;;;22.90;66.61;102881.56;6068853;19;20566;-70
2023/09/03 09:11:05;;;;;;;11.50;5.43;;;;;;;23.33;66.15;102880.78;6067738;19;20210;-70
2023/09/03 09:13:13;;;;;;;9.73;4.90;;;;;;;23.15;62.22;102880.97;6066195;19;20007;-68
2023/09/03 09:15:18;;;;;;;7.00;3.63;;;;;;;23.16;61.41;102880.00;6058154;19;20649;-68
2023/09/03 09:17:28;;;;;;;6.53;3.45;;;;;;;23.10;59.17;102879.53;5993435;19;20015;-69
2023/09/03 09:19:31;;;;;;;6.95;3.63;;;;;;;23.22;59.55;102876.97;6038293;19;20222;-68
2023/09/03 09:21:36;;;;;;;9.15;4.03;;;;;;;23.25;60.48;102885.75;6046874;19;20095;-69
2023/09/03 09:23:45;;;;;;;7.80;3.92;;;;;;;23.05;60.55;102887.84;6057170;19;20765;-69
2023/09/03 09:25:50;;;;;;;8.57;4.40;;;;;;;23.22;60.68;102885.03;6054304;19;20007;-69
2023/09/03 09:28:11;;;;;;;9.90;4.38;;;;;;;23.17;62.98;102886.22;6050807;19;20014;-71
2023/09/03 09:30:26;;;;;;;9.23;5.05;;;;;;;23.12;63.19;102883.00;6031214;19;20519;-69
2023/09/03 09:32:31;;;;;;;7.05;4.18;;;;;;;23.42;61.85;102885.59;6063960;19;20014;-69
2023/09/03 09:34:44;;;;;;;10.32;4.55;;;;;;;23.88;59.38;102880.00;6045990;19;20396;-69
2023/09/03 09:36:55;;;;;;;;;;;;;;;23.59;59.74;102871.97;6048724;19;20021;-69
2023/09/03 09:39:10;;;;;;;11.68;4.25;;;;;;;23.55;59.67;102875.81;6052755;19;20172;-69
2023/09/03 09:41:26;;;;;;;9.80;4.90;;;;;;;23.78;60.16;102866.31;6051000;19;20038;-70